Weather at H B Zachry Heliport

Public forecast

Using degrees Fahrenheit for public forecast. Weather courtesy of forecast.io.

Closest aviation weather report (METAR) to H B Zachry Heliport

Closest report is Stinson Municipal Airport, 2.9 nm (5.3 km) ESE.

2024/07/18 16:53 (retrieved 8 minutes ago)

KSSF 181653Z 02011KT 10SM FEW023 BKN055 BKN075 26/21 A3012 RMK AO2 LTG DSNT NE SLP187 T02610211

Closest aviation forecast (TAF) to H B Zachry Heliport

Closest forecast is Stinson Municipal Airport, 2.9 nm (5.3 km) ESE.

2024/07/18 12:22 (retrieved 5 hours ago)

TAF KSSF 181120Z 1812/1912 23004KT P6SM FEW050 BKN250 FM181600 VRB05KT P6SM VCSH SCT050 BKN200 TEMPO 1818/1822 VRB15G25KT 5SM -TSRA BKN050CB FM182200 VRB05KT P6SM VCSH SCT050 BKN200 FM190300 VRB03KT P6SM FEW045 SCT250